Time;durP1;ratioP1;P1;durP2;ratioP2;P2;SDS_P1;SDS_P2;PMS_P1;PMS_P2;Temp;Humidity;BMP_temperature;BMP_pressure;BME280_temperature;BME280_humidity;BME280_pressure;Samples;Min_cycle;Max_cycle;Signal;HPM_P1;HPM_P2
2023/01/20 00:00:21;;;;;;;12.43;9.97;;;;;;;-0.23;100.00;99755.84;5071494;28;20622;-75
2023/01/20 00:02:46;;;;;;;11.67;8.10;;;;;;;-0.22;100.00;99758.28;5071252;28;20166;-75
2023/01/20 00:05:12;;;;;;;7.73;6.17;;;;;;;-0.22;100.00;99765.50;5070862;28;20239;-75
2023/01/20 00:07:37;;;;;;;10.20;8.50;;;;;;;-0.21;100.00;99762.56;5070958;28;20221;-75
2023/01/20 00:10:03;;;;;;;12.30;10.87;;;;;;;-0.23;100.00;99770.06;5069665;28;20209;-75
2023/01/20 00:12:31;;;;;;;10.70;9.40;;;;;;;-0.28;100.00;99767.38;5070751;28;20178;-75
2023/01/20 00:14:56;;;;;;;19.37;13.07;;;;;;;-0.27;100.00;99768.97;5069481;28;20217;-74
2023/01/20 00:17:22;;;;;;;7.50;5.10;;;;;;;-0.26;100.00;99773.28;5070981;28;20734;-75
2023/01/20 00:19:47;;;;;;;1.60;1.57;;;;;;;-0.31;100.00;99781.28;5069635;28;20182;-75
2023/01/20 00:22:12;;;;;;;14.10;8.63;;;;;;;-0.33;100.00;99776.16;5069535;28;20265;-74
2023/01/20 00:24:38;;;;;;;20.57;10.73;;;;;;;-0.31;100.00;99789.31;5070616;28;20601;-75
2023/01/20 00:27:03;;;;;;;10.90;9.80;;;;;;;-0.31;100.00;99792.00;5070735;28;20220;-75
2023/01/20 00:29:28;;;;;;;2.17;2.07;;;;;;;-0.34;100.00;99795.19;5070982;28;20545;-75
2023/01/20 00:31:54;;;;;;;15.47;6.37;;;;;;;-0.44;100.00;99795.91;5069429;28;20665;-75
2023/01/20 00:34:19;;;;;;;2.53;2.37;;;;;;;-0.43;100.00;99799.44;5052669;28;20704;-75
2023/01/20 00:36:44;;;;;;;4.43;4.13;;;;;;;-0.46;100.00;99802.59;5069306;28;20274;-74
2023/01/20 00:39:10;;;;;;;11.07;7.17;;;;;;;-0.47;100.00;99803.66;5070684;28;20232;-74
2023/01/20 00:41:35;;;;;;;9.43;8.40;;;;;;;-0.50;100.00;99802.31;5070569;28;20262;-75
2023/01/20 00:44:00;;;;;;;7.33;6.77;;;;;;;-0.45;100.00;99807.72;5070501;28;20197;-75
2023/01/20 00:46:26;;;;;;;10.30;7.43;;;;;;;-0.46;100.00;99807.97;5070509;28;20206;-74
2023/01/20 00:48:51;;;;;;;12.43;6.93;;;;;;;-0.45;100.00;99814.97;5070537;28;20196;-75
2023/01/20 00:51:16;;;;;;;12.70;7.87;;;;;;;-0.51;100.00;99816.78;5070583;28;20185;-75
2023/01/20 00:53:42;;;;;;;7.63;7.00;;;;;;;-0.47;100.00;99823.25;5070216;28;20178;-75
2023/01/20 00:56:07;;;;;;;17.80;11.60;;;;;;;-0.46;100.00;99830.25;5070309;28;20183;-75
2023/01/20 00:58:33;;;;;;;19.63;11.60;;;;;;;-0.45;100.00;99825.69;5070587;28;20243;-75
2023/01/20 01:00:58;;;;;;;11.53;10.37;;;;;;;-0.47;100.00;99823.25;5069114;28;20178;-75
2023/01/20 01:03:24;;;;;;;11.80;8.97;;;;;;;-0.44;100.00;99824.63;5070299;28;20186;-75
2023/01/20 01:05:49;;;;;;;11.07;8.30;;;;;;;-0.45;100.00;99825.69;5068789;28;20259;-75
2023/01/20 01:08:14;;;;;;;14.47;12.90;;;;;;;-0.44;100.00;99828.13;5070447;28;20621;-75
2023/01/20 01:10:40;;;;;;;9.07;6.70;;;;;;;-0.42;100.00;99822.53;5070541;28;20266;-75
2023/01/20 01:13:06;;;;;;;7.67;6.87;;;;;;;-0.43;100.00;99835.13;5070419;28;20565;-75
2023/01/20 01:15:32;;;;;;;3.23;3.03;;;;;;;-0.47;100.00;99828.63;5070210;28;20270;-76
2023/01/20 01:17:58;;;;;;;13.07;8.83;;;;;;;-0.44;100.00;99841.53;5070520;28;20413;-75
2023/01/20 01:20:24;;;;;;;11.90;2.40;;;;;;;-0.38;100.00;99847.78;5070811;28;20638;-75
2023/01/20 01:22:49;;;;;;;8.10;4.87;;;;;;;-0.40;100.00;99853.41;5072977;28;20182;-75
2023/01/20 01:25:15;;;;;;;11.10;4.37;;;;;;;-0.43;100.00;99858.47;5072859;28;20375;-76
2023/01/20 01:27:40;;;;;;;10.13;9.17;;;;;;;-0.40;100.00;99857.97;5074225;28;20175;-75
2023/01/20 01:30:06;;;;;;;7.87;7.17;;;;;;;-0.36;100.00;99851.81;5074320;28;20182;-74
2023/01/20 01:32:32;;;;;;;19.77;8.87;;;;;;;-0.37;100.00;99862.81;5073873;28;20179;-75
2023/01/20 01:34:57;;;;;;;12.73;9.70;;;;;;;-0.37;100.00;99854.75;5073872;28;20670;-76
2023/01/20 01:37:23;;;;;;;14.03;7.73;;;;;;;-0.37;100.00;99860.13;5055719;28;20289;-75
2023/01/20 01:39:48;;;;;;;8.27;7.50;;;;;;;-0.42;100.00;99855.53;5073959;28;20216;-76
2023/01/20 01:42:17;;;;;;;9.23;8.40;;;;;;;-0.44;100.00;99859.50;5073663;28;20170;-76
2023/01/20 01:45:10;;;;;;;8.07;7.43;;;;;;;-0.44;100.00;99865.69;5073635;28;20726;-76
2023/01/20 01:47:47;;;;;;;9.67;7.10;;;;;;;-0.43;100.00;99874.56;5073653;28;20487;-76
2023/01/20 01:50:26;;;;;;;8.53;7.13;;;;;;;-0.42;100.00;99868.13;5073577;28;20553;-75
2023/01/20 01:52:54;;;;;;;16.13;8.30;;;;;;;-0.49;100.00;99865.63;5072899;28;20876;-76
2023/01/20 01:55:24;;;;;;;5.03;4.63;;;;;;;-0.52;100.00;99868.03;5073595;28;20452;-75
2023/01/20 01:57:50;;;;;;;10.03;8.60;;;;;;;-0.49;100.00;99864.81;5072096;28;20584;-77
2023/01/20 02:00:16;;;;;;;6.63;5.23;;;;;;;-0.52;100.00;99860.78;5073678;28;20496;-76
2023/01/20 02:02:43;;;;;;;10.43;6.67;;;;;;;-0.54;100.00;99867.47;5073082;28;20503;-77
2023/01/20 02:05:11;;;;;;;8.50;6.10;;;;;;;-0.61;100.00;99873.81;5073266;28;20228;-77
2023/01/20 02:07:36;;;;;;;27.20;8.53;;;;;;;-0.56;100.00;99867.72;5073520;28;20421;-76
2023/01/20 02:10:02;;;;;;;18.13;8.93;;;;;;;-0.55;100.00;99863.97;5073234;28;20467;-77
2023/01/20 02:12:28;;;;;;;10.70;9.50;;;;;;;-0.48;100.00;99879.84;5071742;28;20179;-77
2023/01/20 02:14:56;;;;;;;7.70;6.57;;;;;;;-0.46;100.00;99875.84;5072943;28;20194;-76
2023/01/20 02:17:29;;;;;;;8.03;4.40;;;;;;;-0.50;100.00;99882.00;5073136;28;20409;-76
2023/01/20 02:20:26;;;;;;;1.87;1.80;;;;;;;-0.53;100.00;99879.81;5073402;28;20488;-77
2023/01/20 02:23:06;;;;;;;3.93;3.53;;;;;;;-0.57;100.00;99882.19;5072832;28;20412;-76
2023/01/20 02:25:35;;;;;;;32.10;5.93;;;;;;;-0.58;100.00;99882.44;5072899;28;20459;-75
2023/01/20 02:28:28;;;;;;;11.10;7.37;;;;;;;-0.61;100.00;99889.91;5072984;28;20417;-77
2023/01/20 02:31:19;;;;;;;4.70;4.30;;;;;;;-0.60;100.00;99894.22;5072905;28;20478;-77
2023/01/20 02:34:00;;;;;;;7.20;6.40;;;;;;;-0.64;100.00;99895.78;5071614;28;20401;-77
2023/01/20 02:36:38;;;;;;;5.93;4.87;;;;;;;-0.60;100.00;99890.72;5072811;28;20417;-77
2023/01/20 02:39:20;;;;;;;10.73;9.80;;;;;;;-0.59;100.00;99895.03;5071510;28;20955;-77
2023/01/20 02:42:22;;;;;;;7.43;6.77;;;;;;;-0.56;100.00;99896.44;5072803;28;20964;-76
2023/01/20 02:45:12;;;;;;;8.87;7.10;;;;;;;-0.61;100.00;99902.53;5050119;28;20420;-78
2023/01/20 02:47:49;;;;;;;14.27;10.13;;;;;;;-0.61;100.00;99906.00;5072328;28;20608;-76
2023/01/20 02:50:21;;;;;;;12.50;11.07;;;;;;;-0.61;100.00;99913.25;5071012;28;20469;-74
2023/01/20 02:52:52;;;;;;;3.50;3.20;;;;;;;-0.61;100.00;99905.22;5072763;28;20453;-73
2023/01/20 02:55:27;;;;;;;5.00;3.63;;;;;;;-0.61;100.00;99907.88;5080380;28;21059;-74
2023/01/20 02:57:59;;;;;;;8.17;5.77;;;;;;;-0.65;100.00;99912.13;5072913;28;20415;-75
2023/01/20 03:00:30;;;;;;;15.17;9.10;;;;;;;-0.67;100.00;99916.94;5072617;28;20408;-74
2023/01/20 03:02:58;;;;;;;4.23;3.93;;;;;;;-0.61;100.00;99918.63;5072255;28;20448;-74
2023/01/20 03:05:30;;;;;;;4.93;4.63;;;;;;;-0.63;100.00;99924.22;5072642;28;20447;-74
2023/01/20 03:07:58;;;;;;;11.90;10.63;;;;;;;-0.61;100.00;99922.09;5072863;28;20523;-74
2023/01/20 03:10:28;;;;;;;24.50;7.47;;;;;;;-0.56;100.00;99918.69;5071229;28;20524;-75
2023/01/20 03:12:58;;;;;;;19.90;4.60;;;;;;;-0.50;100.00;99919.56;5072386;28;20474;-74
2023/01/20 03:15:32;;;;;;;5.17;4.77;;;;;;;-0.54;100.00;99919.25;5071999;28;20535;-74
2023/01/20 03:17:57;;;;;;;3.90;3.70;;;;;;;-0.55;100.00;99927.56;5072457;28;20486;-74
2023/01/20 03:20:23;;;;;;;5.30;4.90;;;;;;;-0.53;100.00;99933.47;5072051;28;20421;-74
2023/01/20 03:22:49;;;;;;;6.13;5.00;;;;;;;-0.54;100.00;99937.22;5071759;28;20261;-75
2023/01/20 03:25:16;;;;;;;6.00;4.07;;;;;;;-0.52;100.00;99937.78;5072005;28;20649;-74
2023/01/20 03:27:42;;;;;;;3.30;3.00;;;;;;;-0.53;100.00;99938.84;5071821;28;20824;-74
2023/01/20 03:30:15;;;;;;;3.93;3.60;;;;;;;-0.49;100.00;99945.31;5071811;28;20511;-74
2023/01/20 03:32:43;;;;;;;6.80;4.00;;;;;;;-0.54;100.00;99945.25;5072006;28;20170;-74
2023/01/20 03:35:09;;;;;;;5.17;4.77;;;;;;;-0.53;100.00;99946.88;5071634;28;20468;-74
2023/01/20 03:37:34;;;;;;;10.20;2.27;;;;;;;-0.51;100.00;99947.44;5071600;28;20482;-74
2023/01/20 03:40:01;;;;;;;5.50;5.10;;;;;;;-0.49;100.00;99953.38;5071547;28;20170;-74
2023/01/20 03:42:43;;;;;;;14.10;7.87;;;;;;;-0.49;100.00;99964.91;5071606;28;20622;-74
2023/01/20 03:45:30;;;;;;;6.73;6.07;;;;;;;-0.51;100.00;99966.22;5071144;28;20413;-74
2023/01/20 03:48:11;;;;;;;14.63;10.57;;;;;;;-0.52;100.00;99969.97;5071694;28;20412;-73
2023/01/20 03:50:53;;;;;;;5.77;5.23;;;;;;;-0.56;100.00;99966.19;5071523;28;20577;-74
2023/01/20 03:53:30;;;;;;;5.77;5.27;;;;;;;-0.60;100.00;99972.00;5071208;28;20405;-74
2023/01/20 03:56:08;;;;;;;7.33;6.63;;;;;;;-0.54;100.00;99966.72;5071160;28;20955;-74
2023/01/20 03:58:39;;;;;;;14.13;7.50;;;;;;;-0.55;100.00;99965.91;5069982;28;20456;-74
2023/01/20 04:01:07;;;;;;;13.87;9.53;;;;;;;-0.55;100.00;99981.22;5069923;28;20431;-74
2023/01/20 04:03:38;;;;;;;7.43;6.73;;;;;;;-0.55;100.00;99978.53;5070837;28;20449;-74
2023/01/20 04:06:06;;;;;;;4.23;3.93;;;;;;;-0.52;100.00;99983.38;5053082;28;20437;-75
2023/01/20 04:08:38;;;;;;;4.40;4.00;;;;;;;-0.50;100.00;99983.94;5071192;28;20774;-75
2023/01/20 04:11:06;;;;;;;6.50;5.87;;;;;;;-0.54;100.00;99993.56;5070944;28;20767;-74
2023/01/20 04:13:32;;;;;;;2.83;2.70;;;;;;;-0.57;100.00;99992.19;5070721;28;20419;-74
2023/01/20 04:15:58;;;;;;;12.40;6.87;;;;;;;-0.55;100.00;99998.13;5070771;28;20213;-74
2023/01/20 04:18:24;;;;;;;0.80;0.77;;;;;;;-0.52;100.00;99994.13;5071326;28;20182;-74
2023/01/20 04:20:53;;;;;;;1.60;1.53;;;;;;;-0.55;100.00;99986.56;5070962;28;20954;-75
2023/01/20 04:23:35;;;;;;;4.33;3.37;;;;;;;-0.55;100.00;99990.06;5070575;28;20623;-74
2023/01/20 04:26:01;;;;;;;7.47;2.63;;;;;;;-0.59;100.00;99999.66;5070864;28;20818;-74
2023/01/20 04:28:26;;;;;;;0.43;0.43;;;;;;;-0.58;100.00;99998.59;5071045;28;20494;-74
2023/01/20 04:30:51;;;;;;;1.40;1.30;;;;;;;-0.61;100.00;100004.44;5071067;28;20178;-74
2023/01/20 04:33:17;;;;;;;0.20;0.20;;;;;;;-0.64;100.00;100011.13;5069338;28;20183;-74
2023/01/20 04:35:42;;;;;;;1.50;0.93;;;;;;;-0.67;100.00;100011.63;5070553;28;20519;-74
2023/01/20 04:38:08;;;;;;;2.87;2.20;;;;;;;-0.73;100.00;100015.28;5069500;28;20174;-75
2023/01/20 04:40:33;;;;;;;5.53;3.97;;;;;;;-0.86;100.00;100013.00;5070728;28;20253;-75
2023/01/20 04:42:58;;;;;;;3.20;2.97;;;;;;;-0.97;100.00;100012.03;5070542;28;20547;-75
2023/01/20 04:45:24;;;;;;;0.77;0.77;;;;;;;-1.01;100.00;100010.09;5070633;28;20181;-74
2023/01/20 04:47:49;;;;;;;8.70;4.67;;;;;;;-1.00;100.00;100009.84;5070607;28;20182;-74
2023/01/20 04:50:15;;;;;;;4.73;3.73;;;;;;;-0.96;100.00;100019.00;5070620;28;20182;-74
2023/01/20 04:52:41;;;;;;;2.63;2.33;;;;;;;-1.00;100.00;100014.41;5070483;28;20198;-76
2023/01/20 04:55:07;;;;;;;8.93;3.27;;;;;;;-0.98;100.00;100012.28;5070445;28;20205;-75
2023/01/20 04:57:32;;;;;;;6.37;4.97;;;;;;;-0.99;100.00;100010.66;5074703;28;20182;-74
2023/01/20 04:59:57;;;;;;;6.93;6.07;;;;;;;-0.89;100.00;100013.47;5074447;28;20676;-74
2023/01/20 05:02:23;;;;;;;9.77;7.47;;;;;;;-0.83;100.00;100015.19;5073130;28;20182;-75
2023/01/20 05:04:48;;;;;;;24.37;7.27;;;;;;;-0.73;100.00;100017.97;5074115;28;20178;-74
2023/01/20 05:07:13;;;;;;;13.57;4.43;;;;;;;-0.71;100.00;100020.44;5074516;28;20215;-74
2023/01/20 05:09:38;;;;;;;7.30;6.70;;;;;;;-0.65;100.00;100028.28;5073305;28;20182;-74
2023/01/20 05:12:05;;;;;;;14.03;7.90;;;;;;;-0.53;100.00;100028.19;5074402;28;20653;-73
2023/01/20 05:14:30;;;;;;;3.50;3.30;;;;;;;-0.48;100.00;100024.75;5074389;28;20198;-73
2023/01/20 05:16:56;;;;;;;7.20;4.60;;;;;;;-0.49;100.00;100026.63;5074293;28;20997;-74
2023/01/20 05:19:21;;;;;;;1.43;1.37;;;;;;;-0.50;100.00;100026.88;5074498;28;20185;-73
2023/01/20 05:21:46;;;;;;;6.40;5.57;;;;;;;-0.49;100.00;100033.84;5074261;28;20178;-74
2023/01/20 05:24:12;;;;;;;13.20;6.17;;;;;;;-0.47;100.00;100037.09;5073938;28;20179;-73
2023/01/20 05:26:37;;;;;;;10.17;5.97;;;;;;;-0.50;100.00;100043.78;5073998;28;20186;-75
2023/01/20 05:29:02;;;;;;;1.70;1.60;;;;;;;-0.48;100.00;100046.22;5074015;28;20307;-74
2023/01/20 05:31:28;;;;;;;6.37;5.87;;;;;;;-0.48;100.00;100032.78;5074170;28;20204;-74
2023/01/20 05:33:54;;;;;;;7.77;4.80;;;;;;;-0.47;100.00;100043.28;5073627;28;20221;-74
2023/01/20 05:36:19;;;;;;;5.53;4.77;;;;;;;-0.50;100.00;100048.34;5073781;28;20175;-74
2023/01/20 05:38:44;;;;;;;4.77;4.30;;;;;;;-0.50;100.00;100048.34;5072563;28;20193;-74
2023/01/20 05:41:10;;;;;;;5.27;4.60;;;;;;;-0.50;100.00;100048.34;5073847;28;20175;-75
2023/01/20 05:43:36;;;;;;;4.17;3.87;;;;;;;-0.45;100.00;100053.75;5073576;28;20179;-74
2023/01/20 05:46:02;;;;;;;6.10;5.33;;;;;;;-0.47;100.00;100053.19;5073587;28;20182;-74
2023/01/20 05:48:27;;;;;;;7.93;5.07;;;;;;;-0.52;100.00;100062.00;5072346;28;20285;-74
2023/01/20 05:50:53;;;;;;;3.00;2.80;;;;;;;-0.48;100.00;100065.00;5073912;28;20292;-74
2023/01/20 05:53:18;;;;;;;7.70;6.20;;;;;;;-0.55;100.00;100067.06;5073239;28;20626;-74
2023/01/20 05:55:44;;;;;;;8.63;6.87;;;;;;;-0.58;100.00;100075.56;5073323;28;20238;-74
2023/01/20 05:58:09;;;;;;;2.80;2.60;;;;;;;-0.62;100.00;100077.94;5072525;28;20255;-74
2023/01/20 06:00:35;;;;;;;9.33;6.63;;;;;;;-0.63;100.00;100082.50;5072016;28;20247;-74
2023/01/20 06:03:00;;;;;;;4.10;3.80;;;;;;;-0.64;100.00;100080.88;5072574;28;20186;-75
2023/01/20 06:05:26;;;;;;;5.20;4.80;;;;;;;-0.64;100.00;100080.06;5073460;28;20298;-74
2023/01/20 06:07:53;;;;;;;9.23;5.80;;;;;;;-0.58;100.00;100072.88;5073271;28;20257;-74
2023/01/20 06:10:18;;;;;;;5.13;4.60;;;;;;;-0.62;100.00;100083.31;5073406;28;20198;-74
2023/01/20 06:12:51;;;;;;;5.27;4.83;;;;;;;-0.64;100.00;100080.88;5072985;28;20778;-74
2023/01/20 06:15:16;;;;;;;4.13;3.77;;;;;;;-0.72;100.00;100084.00;5073247;28;20674;-73
2023/01/20 06:17:42;;;;;;;1.20;1.20;;;;;;;-0.75;100.00;100092.50;5072950;28;20416;-76
2023/01/20 06:20:09;;;;;;;0.53;0.53;;;;;;;-0.75;100.00;100099.75;5073358;28;20340;-74
2023/01/20 06:22:34;;;;;;;2.10;2.00;;;;;;;-0.83;100.00;100100.97;5072846;28;20181;-74
2023/01/20 06:24:59;;;;;;;5.07;4.67;;;;;;;-0.81;100.00;100109.59;5072988;28;20413;-74
2023/01/20 06:27:24;;;;;;;0.70;0.70;;;;;;;-0.81;100.00;100114.97;5054869;28;20198;-74
2023/01/20 06:29:50;;;;;;;1.43;1.43;;;;;;;-0.83;100.00;100114.38;5072834;28;20251;-74
2023/01/20 06:32:15;;;;;;;5.00;4.60;;;;;;;-0.88;100.00;100114.28;5072787;28;20253;-74
2023/01/20 06:34:40;;;;;;;14.40;4.50;;;;;;;-0.96;100.00;100109.34;5071491;28;20217;-74
2023/01/20 06:37:06;;;;;;;4.83;4.43;;;;;;;-0.96;100.00;100117.41;5072621;28;20166;-74
2023/01/20 06:39:31;;;;;;;7.00;6.40;;;;;;;-0.98;100.00;100108.78;5072852;28;20178;-74
2023/01/20 06:41:57;;;;;;;10.47;8.73;;;;;;;-0.94;100.00;100118.78;5072658;28;20232;-75
2023/01/20 06:44:23;;;;;;;10.87;6.90;;;;;;;-0.91;100.00;100123.63;5072483;28;20223;-73
2023/01/20 06:46:48;;;;;;;7.53;6.43;;;;;;;-0.85;100.00;100123.75;5072386;28;20417;-77
2023/01/20 06:49:13;;;;;;;1.50;1.40;;;;;;;-0.85;100.00;100131.78;5072592;28;20634;-74
2023/01/20 06:51:40;;;;;;;4.40;4.00;;;;;;;-0.84;100.00;100133.41;5070965;28;20203;-72
2023/01/20 06:54:05;;;;;;;5.83;5.30;;;;;;;-0.78;100.00;100137.78;5072464;28;20674;-74
2023/01/20 06:56:31;;;;;;;3.67;3.40;;;;;;;-0.79;100.00;100134.28;5072215;28;20438;-74
2023/01/20 06:58:56;;;;;;;12.30;3.63;;;;;;;-0.83;100.00;100130.47;5072295;28;20397;-74
2023/01/20 07:01:24;;;;;;;3.53;2.70;;;;;;;-0.80;100.00;100140.72;5072590;28;20167;-75
2023/01/20 07:03:50;;;;;;;8.43;4.43;;;;;;;-0.78;100.00;100143.97;5072338;28;20178;-75
2023/01/20 07:06:26;;;;;;;8.17;7.03;;;;;;;-0.76;100.00;100157.13;5071739;28;20424;-74
2023/01/20 07:08:52;;;;;;;1.83;1.73;;;;;;;-0.75;100.00;100148.81;5072161;28;20628;-74
2023/01/20 07:11:18;;;;;;;4.10;1.80;;;;;;;-0.75;100.00;100162.25;5072407;28;20436;-73
2023/01/20 07:13:43;;;;;;;3.07;1.73;;;;;;;-0.79;100.00;100157.63;5072376;28;20644;-77
2023/01/20 07:16:09;;;;;;;2.60;2.40;;;;;;;-0.81;100.00;100159.72;5070504;28;20584;-73
2023/01/20 07:18:34;;;;;;;1.90;1.67;;;;;;;-0.86;100.00;100159.66;5071233;28;20249;-73
2023/01/20 07:21:00;;;;;;;0.60;0.60;;;;;;;-1.03;100.00;100156.94;5071985;28;20178;-73
2023/01/20 07:23:26;;;;;;;2.13;1.93;;;;;;;-1.13;100.00;100171.00;5071729;28;20600;-74
2023/01/20 07:26:23;;;;;;;3.27;3.03;;;;;;;-1.11;100.00;100170.75;5070434;28;20174;-73
2023/01/20 07:28:48;;;;;;;16.10;5.50;;;;;;;-1.04;100.00;100179.44;5063010;28;20909;-73
2023/01/20 07:31:19;;;;;;;3.53;2.77;;;;;;;-1.02;100.00;100175.47;5071457;28;20429;-72
2023/01/20 07:33:45;;;;;;;5.33;4.87;;;;;;;-1.03;100.00;100186.44;5071158;28;20263;-74
2023/01/20 07:36:12;;;;;;;0.00;0.00;;;;;;;-1.05;100.00;100188.53;5069992;28;21012;-72
2023/01/20 07:38:38;;;;;;;1.50;1.40;;;;;;;-1.07;100.00;100187.97;5053550;28;20193;-73
2023/01/20 07:41:09;;;;;;;0.00;0.00;;;;;;;-1.04;100.00;100190.97;5069351;28;20512;-73
2023/01/20 07:43:34;;;;;;;0.00;0.00;;;;;;;-1.13;100.00;100194.31;5071075;28;20179;-72
2023/01/20 07:46:02;;;;;;;0.00;0.00;;;;;;;-1.13;100.00;100194.31;5071162;28;20777;-73
2023/01/20 07:48:32;;;;;;;0.00;0.00;;;;;;;-1.15;100.00;100197.22;5071015;28;20174;-74
2023/01/20 07:51:04;;;;;;;0.00;0.00;;;;;;;-1.13;100.00;100195.13;5069749;28;20478;-74
2023/01/20 07:53:50;;;;;;;0.00;0.00;;;;;;;-1.03;100.00;100197.16;5069831;28;20948;-72
2023/01/20 07:56:19;;;;;;;2.80;2.70;;;;;;;-1.11;100.00;100201.06;5071042;28;20512;-73
2023/01/20 07:58:46;;;;;;;1.57;1.50;;;;;;;-1.22;100.00;100208.09;5070846;28;20439;-73
2023/01/20 08:01:16;;;;;;;9.10;8.50;;;;;;;-1.35;100.00;100213.72;5070880;28;20421;-73
2023/01/20 08:03:43;;;;;;;10.37;9.70;;;;;;;-1.42;100.00;100213.06;5069359;28;20425;-72
2023/01/20 08:06:11;;;;;;;0.67;0.67;;;;;;;-1.46;100.00;100221.78;5070497;28;20429;-73
2023/01/20 08:08:36;;;;;;;0.93;0.93;;;;;;;-1.67;100.00;100221.41;5053216;28;20483;-72
2023/01/20 08:11:03;;;;;;;3.13;2.37;;;;;;;-1.65;100.00;100231.88;5070934;28;20453;-72
2023/01/20 08:13:29;;;;;;;0.00;0.00;;;;;;;-1.68;100.00;100229.66;5070773;28;20170;-72
2023/01/20 08:15:55;;;;;;;1.40;1.40;;;;;;;-1.60;100.00;100234.63;5069399;28;21010;-72
2023/01/20 08:18:21;;;;;;;1.63;1.53;;;;;;;-1.64;100.00;100233.50;5070979;28;20425;-73
2023/01/20 08:20:46;;;;;;;1.13;1.13;;;;;;;-1.64;100.00;100236.16;5070853;28;20175;-72
2023/01/20 08:23:11;;;;;;;0.00;0.00;;;;;;;-1.66;100.00;100232.91;5070637;28;20645;-73
2023/01/20 08:25:37;;;;;;;0.30;0.30;;;;;;;-1.57;100.00;100244.91;5070644;28;20175;-72
2023/01/20 08:28:02;;;;;;;1.33;1.33;;;;;;;-1.50;100.00;100245.56;5070778;28;20579;-72
2023/01/20 08:30:27;;;;;;;2.83;2.63;;;;;;;-1.48;100.00;100250.69;5070971;28;20171;-74
2023/01/20 08:32:53;;;;;;;1.17;1.17;;;;;;;-1.53;100.00;100251.41;5070381;28;20709;-73
2023/01/20 08:35:18;;;;;;;0.77;0.77;;;;;;;-1.55;100.00;100258.88;5070462;28;20202;-74
2023/01/20 08:37:43;;;;;;;1.07;1.07;;;;;;;-1.52;100.00;100258.41;5070644;28;20178;-73
2023/01/20 08:40:10;;;;;;;0.30;0.30;;;;;;;-1.51;100.00;100255.47;5070432;28;20181;-73
2023/01/20 08:42:36;;;;;;;0.00;0.00;;;;;;;-1.49;100.00;100268.63;5070320;28;20171;-72
2023/01/20 08:45:04;;;;;;;0.13;0.13;;;;;;;-1.46;100.00;100264.66;5070900;28;20412;-73
2023/01/20 08:47:29;;;;;;;9.53;2.37;;;;;;;-1.42;100.00;100266.66;5070293;28;20417;-73
2023/01/20 08:49:55;;;;;;;1.30;1.30;;;;;;;-1.41;100.00;100270.94;5070432;28;20421;-74
2023/01/20 08:52:20;;;;;;;1.03;1.03;;;;;;;-1.25;100.00;100280.13;5070399;28;20198;-73
2023/01/20 08:54:45;;;;;;;7.10;6.43;;;;;;;-1.13;100.00;100278.22;5070126;28;20194;-72
2023/01/20 08:57:11;;;;;;;7.10;3.67;;;;;;;-1.03;100.00;100281.06;5068814;28;20187;-73
2023/01/20 08:59:37;;;;;;;0.00;0.00;;;;;;;-0.99;100.00;100284.09;5070408;28;20205;-73
2023/01/20 09:02:02;;;;;;;0.53;0.53;;;;;;;-0.97;100.00;100285.50;5070244;28;20170;-74
2023/01/20 09:04:27;;;;;;;0.13;0.13;;;;;;;-0.90;100.00;100291.50;5069540;28;20178;-74
2023/01/20 09:06:53;;;;;;;0.07;0.07;;;;;;;-0.83;100.00;100291.38;5070213;28;20297;-75
2023/01/20 09:09:21;;;;;;;3.33;2.67;;;;;;;-0.76;100.00;100301.94;5070124;28;20263;-73
2023/01/20 09:11:50;;;;;;;5.33;4.97;;;;;;;-0.67;100.00;100300.50;5070271;28;20177;-74
2023/01/20 09:14:17;;;;;;;10.93;9.80;;;;;;;-0.65;100.00;100298.41;5069786;28;20480;-73
2023/01/20 09:16:43;;;;;;;3.53;3.37;;;;;;;-0.58;100.00;100308.97;5068564;28;20412;-74
2023/01/20 09:19:08;;;;;;;3.30;3.20;;;;;;;-0.55;100.00;100308.50;5070109;28;20423;-74
2023/01/20 09:21:33;;;;;;;0.00;0.00;;;;;;;-0.60;100.00;100314.59;5068590;28;20186;-73
2023/01/20 09:23:59;;;;;;;2.03;0.87;;;;;;;-0.49;100.00;100326.31;5069679;28;20167;-73
2023/01/20 09:26:24;;;;;;;0.23;0.20;;;;;;;-0.44;100.00;100326.41;5069986;28;20183;-73
2023/01/20 09:28:49;;;;;;;0.00;0.00;;;;;;;-0.40;100.00;100322.19;5069971;28;20181;-73
2023/01/20 09:31:15;;;;;;;0.10;0.10;;;;;;;-0.32;100.00;100324.47;5069975;28;20194;-74
2023/01/20 09:33:40;;;;;;;1.40;1.30;;;;;;;-0.25;100.00;100327.00;5069436;28;20171;-73
2023/01/20 09:36:08;;;;;;;3.40;3.20;;;;;;;-0.24;100.00;100331.31;5069698;28;20614;-77
2023/01/20 09:44:54;;;;;;;5.27;4.87;;;;;;;-0.23;100.00;100339.13;5073616;28;20474;-75
2023/01/20 09:47:28;;;;;;;7.17;4.47;;;;;;;-0.21;100.00;100334.31;5072209;28;20458;-74
2023/01/20 09:53:15;;;;;;;30.17;2.70;;;;;;;0.01;100.00;100347.84;5073235;28;20930;-75
2023/01/20 09:56:00;;;;;;;0.10;0.10;;;;;;;0.12;100.00;100346.94;5071861;28;20472;-74
2023/01/20 09:58:54;;;;;;;0.20;0.20;;;;;;;0.22;100.00;100346.28;5052261;28;20847;-77
2023/01/20 10:01:41;;;;;;;3.00;2.70;;;;;;;0.24;100.00;100353.03;5053397;28;20434;-77
2023/01/20 10:04:37;;;;;;;1.40;1.40;;;;;;;0.28;100.00;100356.84;5053399;28;20421;-76
2023/01/20 10:07:02;;;;;;;0.87;0.87;;;;;;;0.36;100.00;100363.69;5052070;28;20232;-77
2023/01/20 10:09:36;;;;;;;2.47;2.37;;;;;;;0.38;99.56;100364.25;5052326;28;20184;-76
2023/01/20 10:12:16;;;;;;;2.13;1.27;;;;;;;0.40;99.13;100367.50;5053176;28;20554;-73
2023/01/20 10:14:57;;;;;;;0.37;0.37;;;;;;;0.48;99.16;100375.16;5051786;28;20229;-72
2023/01/20 10:17:27;;;;;;;3.03;2.67;;;;;;;0.54;98.23;100371.47;5061758;28;20182;-73
2023/01/20 10:20:02;;;;;;;1.40;1.37;;;;;;;0.57;97.31;100372.84;5072785;28;20240;-70
2023/01/20 10:22:39;;;;;;;0.00;0.00;;;;;;;0.60;96.84;100372.38;5071539;28;20264;-73
2023/01/20 10:25:22;;;;;;;2.00;1.90;;;;;;;0.69;96.58;100376.25;5063745;28;20190;-73
2023/01/20 10:28:04;;;;;;;0.20;0.20;;;;;;;0.82;97.36;100373.22;5072741;28;20638;-75
2023/01/20 10:30:34;;;;;;;1.60;0.87;;;;;;;0.94;97.42;100381.19;5072710;28;20171;-72
2023/01/20 10:33:13;;;;;;;2.83;2.57;;;;;;;0.93;96.01;100373.34;5072462;28;20174;-71
2023/01/20 10:35:43;;;;;;;1.73;0.83;;;;;;;0.99;95.10;100378.53;5073265;28;20241;-73
2023/01/20 10:38:33;;;;;;;2.43;2.23;;;;;;;1.09;94.65;100375.16;5072592;28;20183;-73
2023/01/20 10:41:19;;;;;;;0.00;0.00;;;;;;;1.18;94.30;100379.06;5072517;28;20179;-72
2023/01/20 10:43:45;;;;;;;5.10;4.63;;;;;;;1.23;93.49;100372.91;5072369;28;20240;-71
2023/01/20 10:46:22;;;;;;;1.90;1.80;;;;;;;1.25;93.00;100378.84;5072243;28;20191;-71
2023/01/20 10:49:14;;;;;;;4.90;4.47;;;;;;;1.26;92.75;100375.09;5080466;28;20654;-70
2023/01/20 10:52:30;;;;;;;8.13;3.73;;;;;;;1.24;92.27;100377.22;5074951;28;20170;-71
2023/01/20 10:55:11;;;;;;;1.67;1.57;;;;;;;1.29;91.81;100379.97;4992534;28;20227;-71
2023/01/20 10:57:37;;;;;;;0.50;0.50;;;;;;;1.35;91.64;100392.44;5070466;28;20186;-71
2023/01/20 11:00:08;;;;;;;0.87;0.70;;;;;;;1.40;90.59;100397.88;5072584;28;20185;-70
2023/01/20 11:02:36;;;;;;;1.93;1.83;;;;;;;1.42;90.68;100393.84;5073234;28;20659;-74
2023/01/20 11:05:02;;;;;;;1.17;1.17;;;;;;;1.52;90.77;100401.25;5074104;28;20328;-74
2023/01/20 11:07:31;;;;;;;4.47;3.67;;;;;;;1.45;89.73;100398.75;5074831;28;20528;-75
2023/01/20 11:09:59;;;;;;;10.03;4.27;;;;;;;1.48;89.49;100405.50;5073954;28;20207;-75
2023/01/20 11:12:30;;;;;;;0.07;0.07;;;;;;;1.51;89.40;100396.13;5073448;28;20174;-74
2023/01/20 11:15:00;;;;;;;3.43;3.13;;;;;;;1.54;89.55;100412.56;5073184;28;20273;-74
2023/01/20 11:17:25;;;;;;;5.17;2.73;;;;;;;1.58;89.48;100405.59;5072929;28;20174;-74
2023/01/20 11:19:55;;;;;;;3.33;3.03;;;;;;;1.53;89.16;100400.19;5073085;28;20657;-73
2023/01/20 11:22:32;;;;;;;0.30;0.30;;;;;;;1.52;88.59;100411.19;5071467;28;20233;-75
2023/01/20 11:24:59;;;;;;;8.80;3.43;;;;;;;1.58;88.51;100404.78;5070025;28;20182;-75
2023/01/20 11:27:29;;;;;;;6.77;4.83;;;;;;;1.48;88.17;100409.00;5071072;28;20515;-73
2023/01/20 11:30:00;;;;;;;3.30;1.33;;;;;;;1.53;88.63;100421.72;5070431;28;20178;-73
2023/01/20 11:32:34;;;;;;;0.00;0.00;;;;;;;1.62;88.68;100420.22;5071400;28;20436;-73
2023/01/20 11:35:16;;;;;;;10.40;3.80;;;;;;;1.75;88.69;100427.09;5069619;28;20195;-73
2023/01/20 11:37:42;;;;;;;2.30;2.20;;;;;;;1.71;87.59;100425.94;5069620;28;20208;-74